createdAt,value
2022-10-10T00:00:32.379Z,8.97
2022-10-10T00:04:35.155Z,8.67
2022-10-10T00:08:35.472Z,7.30
2022-10-10T00:12:35.663Z,8.57
2022-10-10T00:16:36.271Z,14.63
2022-10-10T00:20:39.124Z,7.07
2022-10-10T00:24:39.363Z,8.43
2022-10-10T00:28:40.686Z,8.27
2022-10-10T00:32:41.368Z,8.67
2022-10-10T00:36:44.140Z,9.97
2022-10-10T00:40:50.177Z,7.60
2022-10-10T00:45:25.016Z,9.53
2022-10-10T00:49:32.461Z,11.83
2022-10-10T00:53:41.131Z,9.80
2022-10-10T00:57:41.467Z,8.60
2022-10-10T01:01:42.267Z,8.87
2022-10-10T01:05:44.876Z,8.93
2022-10-10T01:09:49.949Z,7.70
2022-10-10T01:14:04.028Z,10.17
2022-10-10T01:18:16.133Z,11.23
2022-10-10T01:22:32.442Z,11.80
2022-10-10T01:27:21.395Z,16.33
2022-10-10T01:31:28.462Z,15.83
2022-10-10T01:35:48.185Z,11.13
2022-10-10T01:39:59.905Z,11.73
2022-10-10T01:44:02.515Z,14.63
2022-10-10T01:48:08.925Z,13.47
2022-10-10T01:52:25.369Z,15.20
2022-10-10T01:56:43.545Z,16.77
2022-10-10T02:00:56.743Z,16.40
2022-10-10T02:05:06.011Z,19.33
2022-10-10T02:09:12.856Z,24.63
2022-10-10T02:13:15.881Z,20.57
2022-10-10T02:17:19.413Z,18.00
2022-10-10T02:21:23.216Z,20.57
2022-10-10T02:25:29.699Z,21.13
2022-10-10T02:29:36.702Z,17.63
2022-10-10T02:33:47.821Z,17.43
2022-10-10T02:37:52.660Z,15.40
2022-10-10T02:41:55.470Z,15.83
2022-10-10T02:45:55.698Z,13.50
2022-10-10T02:49:55.876Z,16.13
2022-10-10T02:53:58.594Z,16.20
2022-10-10T02:57:58.844Z,18.23
2022-10-10T03:01:59.072Z,9.93
2022-10-10T03:05:59.357Z,13.47
2022-10-10T03:10:02.256Z,16.13
2022-10-10T03:14:02.496Z,12.53
2022-10-10T03:18:02.676Z,14.90
2022-10-10T03:22:02.820Z,13.07
2022-10-10T03:26:07.283Z,16.20
2022-10-10T03:30:09.291Z,13.63
2022-10-10T03:34:09.580Z,16.83
2022-10-10T03:38:10.768Z,11.67
2022-10-10T03:42:13.479Z,12.20
2022-10-10T03:46:16.255Z,12.10
2022-10-10T03:50:17.103Z,11.27
2022-10-10T03:54:17.323Z,11.03
2022-10-10T03:58:23.655Z,10.17
2022-10-10T04:02:24.158Z,10.73
2022-10-10T04:06:24.462Z,14.67
2022-10-10T04:10:24.592Z,16.20
2022-10-10T04:14:27.682Z,12.03
2022-10-10T04:18:28.440Z,13.67
2022-10-10T04:22:28.645Z,17.47
2022-10-10T04:26:29.017Z,13.83
2022-10-10T04:30:35.836Z,12.37
2022-10-10T04:34:36.060Z,11.70
2022-10-10T04:38:36.282Z,14.23
2022-10-10T04:42:37.452Z,13.40
2022-10-10T04:46:40.326Z,10.93
2022-10-10T04:50:40.630Z,12.43
2022-10-10T04:54:41.015Z,10.83
2022-10-10T04:58:41.276Z,11.23
2022-10-10T05:02:44.040Z,8.37
2022-10-10T05:06:44.294Z,12.00
2022-10-10T05:10:44.559Z,12.57
2022-10-10T05:14:48.156Z,13.17
2022-10-10T05:18:51.500Z,15.83
2022-10-10T05:22:51.895Z,13.17
2022-10-10T05:26:52.233Z,13.80
2022-10-10T05:30:54.020Z,16.30
2022-10-10T05:34:56.743Z,24.87
2022-10-10T05:38:57.707Z,20.40
2022-10-10T05:42:58.358Z,29.03
2022-10-10T05:46:58.504Z,20.90
2022-10-10T05:51:03.362Z,19.83
2022-10-10T05:55:03.633Z,20.37
2022-10-10T05:59:03.941Z,19.03
2022-10-10T06:03:04.878Z,18.53
2022-10-10T06:07:07.771Z,13.53
2022-10-10T06:11:11.196Z,12.23
2022-10-10T06:15:13.308Z,13.43
2022-10-10T06:19:15.261Z,14.80
2022-10-10T06:23:18.329Z,11.07
2022-10-10T06:27:18.482Z,13.30
2022-10-10T06:31:19.203Z,12.77
2022-10-10T06:35:19.696Z,14.17
2022-10-10T06:39:22.564Z,10.20
2022-10-10T06:43:22.699Z,11.20
2022-10-10T06:47:22.993Z,8.33
2022-10-10T06:51:23.152Z,8.13
2022-10-10T06:55:25.991Z,7.77
2022-10-10T06:59:26.131Z,5.43
2022-10-10T07:03:26.977Z,25.17
2022-10-10T07:07:27.195Z,10.77
2022-10-10T07:11:30.278Z,8.63
2022-10-10T07:15:30.447Z,8.77
2022-10-10T07:19:30.584Z,9.33
2022-10-10T07:23:31.727Z,8.60
2022-10-10T07:27:34.476Z,9.53
2022-10-10T07:31:35.901Z,13.97
2022-10-10T07:35:36.145Z,6.63
2022-10-10T07:39:36.289Z,10.67
2022-10-10T07:43:39.989Z,9.43
2022-10-10T07:47:40.229Z,11.10
2022-10-10T07:51:41.220Z,8.07
2022-10-10T07:55:42.791Z,11.13
2022-10-10T07:59:45.856Z,9.17
2022-10-10T08:03:46.428Z,10.37
2022-10-10T08:07:46.619Z,9.87
2022-10-10T08:11:46.887Z,7.33
2022-10-10T08:15:53.881Z,9.63
2022-10-10T08:19:54.092Z,6.13
2022-10-10T08:23:54.264Z,7.90
2022-10-10T08:27:54.451Z,7.07
2022-10-10T08:31:57.260Z,8.23
2022-10-10T08:35:57.587Z,10.73
2022-10-10T08:39:57.731Z,5.40
2022-10-10T08:44:04.505Z,11.53
2022-10-10T08:48:15.141Z,8.77
2022-10-10T08:52:30.754Z,9.40
2022-10-10T08:56:36.076Z,7.70
2022-10-10T09:00:45.108Z,8.10
2022-10-10T09:04:47.870Z,5.82
2022-10-10T09:09:04.115Z,7.35
2022-10-10T09:13:16.910Z,8.38
2022-10-10T09:17:35.710Z,6.00
2022-10-10T09:21:43.666Z,9.20
2022-10-10T09:25:53.929Z,6.88
2022-10-10T09:30:04.264Z,6.47
2022-10-10T09:34:14.745Z,5.03
2022-10-10T09:38:34.622Z,10.13
2022-10-10T09:42:41.423Z,8.48
2022-10-10T09:46:42.184Z,7.88
2022-10-10T09:50:43.880Z,7.25
2022-10-10T09:54:49.330Z,7.32
2022-10-10T09:58:52.303Z,5.43
2022-10-10T10:03:05.900Z,6.03
2022-10-10T10:07:21.468Z,6.35
2022-10-10T10:11:34.506Z,5.47
2022-10-10T10:15:35.596Z,6.45
2022-10-10T10:19:39.358Z,6.35
2022-10-10T10:23:46.853Z,5.60
2022-10-10T10:27:49.694Z,7.38
2022-10-10T10:32:03.682Z,4.38
2022-10-10T10:36:21.843Z,5.25
2022-10-10T10:40:33.717Z,5.30
2022-10-10T10:44:48.297Z,4.57
2022-10-10T10:48:50.712Z,5.50
2022-10-10T10:53:02.655Z,7.20
2022-10-10T10:57:31.774Z,6.63
2022-10-10T11:01:56.226Z,7.75
2022-10-10T11:06:14.651Z,9.43
2022-10-10T11:10:31.419Z,5.43
2022-10-10T11:14:53.967Z,5.70
2022-10-10T11:19:18.654Z,7.60
2022-10-10T11:23:25.372Z,7.28
2022-10-10T11:27:32.935Z,7.50
2022-10-10T11:31:41.662Z,5.82
2022-10-10T11:35:51.283Z,4.97
2022-10-10T11:39:59.359Z,4.28
2022-10-10T11:44:08.635Z,6.10
2022-10-10T11:48:26.251Z,7.75
2022-10-10T11:52:40.257Z,6.05
2022-10-10T11:56:45.621Z,7.30
2022-10-10T12:00:54.943Z,5.53
2022-10-10T12:04:55.736Z,4.72
2022-10-10T12:09:06.563Z,7.85
2022-10-10T12:13:27.679Z,6.57
2022-10-10T12:17:32.574Z,5.10
2022-10-10T12:21:35.027Z,7.88
2022-10-10T12:25:46.335Z,5.35
2022-10-10T12:30:22.545Z,3.90
2022-10-10T12:34:45.279Z,7.80
2022-10-10T12:39:36.881Z,4.55
2022-10-10T12:43:52.127Z,4.38
2022-10-10T12:48:05.035Z,7.00
2022-10-10T12:52:11.114Z,4.93
2022-10-10T12:56:17.068Z,6.30
2022-10-10T13:00:24.996Z,8.40
2022-10-10T13:04:28.474Z,5.70
2022-10-10T13:08:31.809Z,8.60
2022-10-10T13:12:34.529Z,4.10
2022-10-10T13:16:47.667Z,5.80
2022-10-10T13:20:48.501Z,6.55
2022-10-10T13:24:53.102Z,7.43
2022-10-10T13:28:54.505Z,11.05
2022-10-10T13:32:59.460Z,6.13
2022-10-10T13:37:02.649Z,7.43
2022-10-10T13:41:05.960Z,5.43
2022-10-10T13:45:34.703Z,8.57
2022-10-10T13:49:37.477Z,10.13
2022-10-10T13:53:48.430Z,9.38
2022-10-10T13:57:50.742Z,10.63
2022-10-10T14:02:01.327Z,8.00
2022-10-10T14:06:04.495Z,14.35
2022-10-10T14:10:11.664Z,11.32
2022-10-10T14:14:24.096Z,9.80
2022-10-10T14:18:26.914Z,14.13
2022-10-10T14:22:29.764Z,8.57
2022-10-10T14:26:30.016Z,9.85
2022-10-10T14:30:30.401Z,7.55
2022-10-10T14:34:30.570Z,9.60
2022-10-10T14:38:33.708Z,8.77
2022-10-10T14:42:34.079Z,12.77
2022-10-10T14:46:34.390Z,7.70
2022-10-10T14:50:38.733Z,14.20
2022-10-10T14:54:41.701Z,8.75
2022-10-10T14:58:41.943Z,7.95
2022-10-10T15:02:45.434Z,12.13
2022-10-10T15:07:11.748Z,10.45
2022-10-10T15:11:09.166Z,9.18
2022-10-10T15:15:11.697Z,15.60
2022-10-10T15:19:12.889Z,11.27
2022-10-10T15:23:13.366Z,10.85
2022-10-10T15:27:16.514Z,9.90
2022-10-10T15:31:16.703Z,7.70
2022-10-10T15:35:20.175Z,10.40
2022-10-10T15:39:20.399Z,12.38
2022-10-10T15:43:23.684Z,8.57
2022-10-10T15:47:24.608Z,11.68
2022-10-10T15:51:24.850Z,9.68
2022-10-10T15:55:24.997Z,10.82
2022-10-10T15:59:27.821Z,10.30
2022-10-10T16:03:28.120Z,11.60
2022-10-10T16:07:30.408Z,9.68
2022-10-10T16:11:31.697Z,13.15
2022-10-10T16:15:34.470Z,12.52
2022-10-10T16:19:34.790Z,11.55
2022-10-10T16:23:35.729Z,9.60
2022-10-10T16:27:38.944Z,12.55
2022-10-10T16:31:43.109Z,15.98
2022-10-10T16:35:43.235Z,9.80
2022-10-10T16:39:43.356Z,8.27
2022-10-10T16:43:46.502Z,9.40
2022-10-10T16:47:49.347Z,10.90
2022-10-10T16:51:49.684Z,7.72
2022-10-10T16:55:50.092Z,11.55
2022-10-10T16:59:50.350Z,17.60
2022-10-10T17:03:54.405Z,13.80
2022-10-10T17:07:54.769Z,12.40
2022-10-10T17:11:54.988Z,9.82
2022-10-10T17:15:55.497Z,9.83
2022-10-10T17:19:58.328Z,15.07
2022-10-10T17:23:58.993Z,21.50
2022-10-10T17:27:59.463Z,22.97
2022-10-10T17:32:04.069Z,23.10
2022-10-10T17:36:15.648Z,29.67
2022-10-10T17:40:16.679Z,25.53
2022-10-10T17:44:16.920Z,20.10
2022-10-10T17:48:17.183Z,19.53
2022-10-10T17:52:21.528Z,16.00
2022-10-10T17:56:25.083Z,24.00
2022-10-10T18:00:25.537Z,20.63
2022-10-10T18:04:25.704Z,19.27
2022-10-10T18:08:28.432Z,20.47
2022-10-10T18:12:28.670Z,21.90
2022-10-10T18:16:32.416Z,31.57
2022-10-10T18:20:32.619Z,24.33
2022-10-10T18:24:35.434Z,29.83
2022-10-10T18:28:39.097Z,29.20
2022-10-10T18:32:39.305Z,24.90
2022-10-10T18:36:42.531Z,35.60
2022-10-10T18:40:45.441Z,52.87
2022-10-10T18:44:45.916Z,39.83
2022-10-10T18:48:51.347Z,40.23
2022-10-10T18:52:56.641Z,37.87
2022-10-10T18:56:59.566Z,37.60
2022-10-10T19:01:03.096Z,30.83
2022-10-10T19:05:03.615Z,30.60
2022-10-10T19:09:05.510Z,41.93
2022-10-10T19:13:08.253Z,28.73
2022-10-10T19:17:09.121Z,34.00
2022-10-10T19:21:10.112Z,35.60
2022-10-10T19:25:40.869Z,27.93
2022-10-10T19:30:15.404Z,27.43
2022-10-10T19:34:28.463Z,30.83
2022-10-10T19:38:46.477Z,33.37
2022-10-10T19:43:08.513Z,39.10
2022-10-10T19:47:11.464Z,50.60
2022-10-10T19:51:15.265Z,40.07
2022-10-10T19:55:18.353Z,40.43
2022-10-10T19:59:18.547Z,46.30
2022-10-10T20:03:22.865Z,42.60
2022-10-10T20:07:23.039Z,47.07
2022-10-10T20:11:23.694Z,35.87
2022-10-10T20:15:23.860Z,34.20
2022-10-10T20:19:27.643Z,32.97
2022-10-10T20:23:29.235Z,33.87
2022-10-10T20:27:31.464Z,26.00
2022-10-10T20:31:35.684Z,22.63
2022-10-10T20:35:39.928Z,14.90
2022-10-10T20:39:40.128Z,19.30
2022-10-10T20:43:42.166Z,17.07
2022-10-10T20:47:42.295Z,14.03
2022-10-10T20:51:48.768Z,15.43
2022-10-10T20:55:48.919Z,17.10
2022-10-10T20:59:49.121Z,17.73
2022-10-10T21:03:50.609Z,15.53
2022-10-10T21:07:53.403Z,15.33
2022-10-10T21:11:54.309Z,18.20
2022-10-10T21:15:54.612Z,17.90
2022-10-10T21:19:55.096Z,15.80
2022-10-10T21:23:58.637Z,14.90
2022-10-10T21:27:58.761Z,17.80
2022-10-10T21:31:59.009Z,19.47
2022-10-10T21:36:00.436Z,17.63
2022-10-10T21:40:03.174Z,25.13
2022-10-10T21:44:03.736Z,26.93
2022-10-10T21:48:03.918Z,24.00
2022-10-10T21:52:04.343Z,23.40
2022-10-10T21:56:11.275Z,23.97
2022-10-10T22:00:14.130Z,24.17
2022-10-10T22:04:14.390Z,27.07
2022-10-10T22:08:14.834Z,28.73
2022-10-10T22:12:17.661Z,25.97
2022-10-10T22:16:17.925Z,23.80
2022-10-10T22:20:18.123Z,21.73
2022-10-10T22:24:18.726Z,21.37
2022-10-10T22:28:22.026Z,25.60
2022-10-10T22:32:22.215Z,24.67
2022-10-10T22:36:22.432Z,24.73
2022-10-10T22:40:23.432Z,27.07
2022-10-10T22:44:26.695Z,20.50
2022-10-10T22:48:27.518Z,22.77
2022-10-10T22:52:28.524Z,20.93
2022-10-10T22:56:29.099Z,21.70
2022-10-10T23:00:32.001Z,26.27
2022-10-10T23:04:32.192Z,16.97
2022-10-10T23:08:32.457Z,22.00
2022-10-10T23:12:32.679Z,26.27
2022-10-10T23:16:39.683Z,21.07
2022-10-10T23:20:40.781Z,19.43
2022-10-10T23:24:41.383Z,20.47
2022-10-10T23:28:44.822Z,19.67
2022-10-10T23:32:48.213Z,15.83
2022-10-10T23:36:48.368Z,15.07
2022-10-10T23:40:48.491Z,15.43
2022-10-10T23:44:48.707Z,15.20
2022-10-10T23:48:51.590Z,18.47
2022-10-10T23:52:51.717Z,17.23
2022-10-10T23:56:51.860Z,19.60
